| Station | Date | Time | Precip 24Hr (In) | Temp 5ft (°F) | Temp 30ft (°F) | Inversion (°F) | RH (%) | Dew Pt (°F) | Wind Spd (mph) | Wind Gust (mph) | Solar Rad (W/m2) | Daily Min Temp (°F) | Daily Max Temp (°F) | Daily Rain (In) | Daily ETo (in) |
|---|---|---|---|---|---|---|---|---|---|---|---|---|---|---|---|
| Shandon ETo (SLO-1) | 9/1/26 | 2115 | - | 55.4 1.5 | 56.0 1.4 | 0.6 | 82 5 | 50.0 0.3 | 0.7 4.7 | 3.1 4.0 | 0 0 | 50.2 6.4 | 76.2 5.5 | 0.00 | 0.175 0.003 |
| Creston Rd (SLO-2) | 9/1/26 | 2115 | - | 55.1 0.3 | 56.0 0.3 | 0.9 | 82 2 | 49.9 0.7 | 0.0 0.0 | 0.0 0.0 | 0 0 | 48.0 4.9 | 76.6 4.1 | 0.00 | 0.179 0.007 |
| NE Paso Robles (SLO-3) | 9/1/26 | 2115 | - | 56.3 0.7 | 57.5 0.5 | 1.2 | 81 0 | 50.6 0.7 | 0.0 0.6 | 0.0 3.4 | 0 0 | 48.5 2.2 | 79.2 3.4 | 0.00 | 0.185 0.020 |
| Cross Canyon Rd (SLO-4) | 9/1/26 | 2115 | - | 57.2 1.0 | 58.4 0.2 | 1.2 | 79 2 | 50.9 0.4 | 3.4 0.3 | 4.8 1.3 | 0 0 | 47.5 0.1 | 79.8 3.3 | 0.00 | 0.179 0.012 |
| Willow Creek (SLO-5) | 9/1/26 | 2115 | - | 49.7 2.4 | 50.9 3.5 | 1.2 | 89 6 | 46.6 0.4 | 0.0 0.0 | 0.0 0.0 | 0 0 | 42.6 0.7 | 71.6 1.5 | 0.00 | 0.160 0.001 |
| Shell Creek Rd (SLO-6) | 9/1/26 | 2115 | - | 53.6 4.9 | 56.6 2.2 | 3.0 | 79 4 | 47.2 3.5 | 1.7 2.9 | 4.1 3.4 | 0 0 | 52.2 15.3 | 82.4 6.2 | 0.00 | 0.192 0.003 |
| South Shandon (SLO-7) | 9/1/26 | 2115 | - | 53.2 2.7 | 54.1 2.5 | 0.9 | 83 3 | 48.1 1.6 | 0.2 2.9 | 1.7 4.4 | 0 0 | 49.8 8.8 | 80.1 5.9 | 0.00 | 0.183 0.006 |
| South Creston (SLO-8) | 9/1/26 | 2115 | - | 54.8 2.7 | 55.6 1.8 | 0.8 | 84 6 | 50.1 0.8 | 0.0 5.5 | 0.0 9.1 | 0 0 | 54.3 15.7 | 78.0 3.3 | 0.00 | 0.181 0.003 |
| Pozo Rd (SLO-9) | 9/1/26 | 2115 | - | 51.3 1.8 | 53.6 0.1 | 2.2 | 84 0 | 46.7 1.9 | 0.3 2.1 | 3.1 1.3 | 0 0 | 45.8 14.5 | 74.2 5.6 | 0.00 | 0.164 0.009 |
| Experimental Station (SLO-10) | 9/1/26 | 2115 | - | 57.7 0.3 | 58.3 1.0 | 0.6 | 76 1 | 50.2 0.1 | 0.3 6.3 | 4.1 7.4 | 0 0 | 51.6 3.2 | 77.7 1.8 | 0.00 | 0.170 0.020 |
| Vineyard Drive (SLO-11) | 9/1/26 | 2115 | - | 50.0 1.8 | 52.3 2.1 | 2.3 | 84 0 | 45.5 1.6 | 0.0 0.0 | 0.0 0.0 | 0 0 | 40.6 0.1 | 72.3 1.8 | 0.00 | 0.157 0.003 |
| Von Dollen Road (SLO-12) | 9/1/26 | 2115 | - | 55.8 1.9 | 57.4 0.2 | 1.6 | 67 2 | 45.0 1.0 | 0.1 2.5 | 2.1 5.7 | 0 0 | 48.1 2.1 | 76.5 3.7 | 0.00 | 0.177 0.014 |
| Templeton Gap West (SLO-13) | 9/1/26 | 2115 | - | 54.8 0.5 | 55.8 0.2 | 1.0 | 88 1 | 51.2 0.7 | 0.6 0.2 | 3.8 0.3 | 0 0 | 45.7 0.5 | 75.0 1.2 | 0.00 | 0.169 0.009 |
| Orcutt Road (SLO-14) | 9/1/26 | 2115 | - | 59.2 2.0 | 59.1 1.8 | -0.1 | 84 0 | 54.3 1.9 | 1.2 0.0 | 4.8 0.3 | 0 0 | 50.0 4.9 | 75.4 0.4 | 0.00 | 0.172 0.024 |
| Tiffany Ranch Rd (SLO-15) | 9/1/26 | 2115 | - | 60.0 2.8 | 60.0 2.4 | -0.0 | 84 1 | 55.1 2.4 | 0.0 0.0 | 0.0 0.0 | 0 0 | 47.3 3.6 | 75.7 0.7 | 0.00 | 0.166 0.024 |
| Chimney Rock Rd (SLO-16) | 9/1/26 | 2115 | - | 52.6 3.6 | 53.3 3.2 | 0.7 | 78 13 | 46.0 1.5 | 0.0 0.3 | 0.0 2.1 | 0 0 | 45.5 4.2 | 74.3 2.0 | 0.00 | 0.163 0.009 |
| Nipomo Mesa (SLO-17) | 9/1/26 | 2115 | - | 60.0 7.4 | 60.3 4.4 | 0.3 | 82 1 | 54.6 6.9 | 4.7 4.7 | 9.1 9.1 | 0 0 | 47.8 0.3 | 72.6 2.4 | 0.00 | 0.167 0.026 |
| Morro Creek (SLO-18) | 9/1/26 | 2115 | - | 56.5 1.3 | 57.3 0.6 | 0.8 | 94 2 | 54.7 0.8 | 0.0 0.0 | 0.0 0.0 | 0 0 | 51.5 3.1 | 68.0 1.3 | 0.00 | 0.148 0.027 |
| Paso Robles Airport ETo | 9/1/26 | 2115 | 0.01 | 56.9 1.3 | 58.0 0.4 | 1.1 | 79 3 | 50.6 0.4 | 0.8 8.9 | 3.8 11.7 | 0 0 | 46.0 2.0 | 75.6 2.9 | 0.01 | 0.176 0.020 |
| West Shandon (SLO-20) | 9/1/26 | 2115 | - | 56.1 1.6 | 56.8 1.3 | 0.7 | 82 4 | 50.6 0.2 | 0.0 4.2 | 0.0 5.4 | 0 0 | 49.8 4.4 | 79.8 4.7 | 0.00 | 0.183 0.006 |
| West San Miguel (SLO-21) | 9/1/26 | 2115 | - | 62.0 3.0 | - | - | 54 16 | 45.3 4.1 | 5.5 4.0 | 11.6 6.7 | 0 0 | 46.0 0.7 | 80.1 3.9 | 0.00 | 0.177 0.015 |
| Adelaida Road (SLO-22) | 9/1/26 | 2115 | - | 58.2 1.1 | 58.8 1.1 | 0.7 | 61 1 | 44.6 1.5 | 1.2 0.9 | 4.3 1.1 | 0 0 | 50.2 8.3 | 74.2 1.8 | 0.00 | 0.161 0.002 |
| East Whitley Gardens (SLO-23) | 9/1/26 | 2115 | - | 55.9 0.8 | 57.6 0.1 | 1.6 | 78 4 | 49.1 0.7 | 0.2 0.6 | 2.6 1.1 | 0 0 | 47.7 3.4 | 76.6 4.8 | 0.00 | 0.186 0.018 |
| Estrella Road (SLO-24) | 9/1/26 | 2115 | - | 57.4 1.2 | - | - | 78 5 | 50.6 0.7 | 2.7 5.1 | 4.3 11.2 | 0 0 | 46.4 1.6 | 77.3 3.7 | 0.00 | 0.186 0.020 |
| Camatta Creek (SLO-25) | 9/1/26 | 2115 | - | 55.0 2.4 | - | - | 77 4 | 48.1 1.1 | 1.1 0.1 | 4.3 0.6 | 0 0 | 49.9 8.2 | 78.3 5.4 | 0.00 | 0.178 0.009 |
| East-Shandon (SLO-26) | 9/1/26 | 2115 | - | 53.2 4.0 | - | - | 82 7 | 47.7 1.3 | 0.0 3.9 | 0.0 6.5 | 0 0 | 48.8 7.5 | 78.2 6.1 | 0.00 | 0.188 0.008 |
| Templeton East (SLO-27) | 9/1/26 | 2115 | - | 54.7 1.7 | - | - | 81 2 | 48.9 2.2 | 1.1 3.0 | 3.8 3.4 | 0 0 | 49.7 5.2 | 74.6 3.5 | 0.00 | 0.171 0.004 |
| Ground Squirrel Hollow (SLO-28) | 9/1/26 | 2115 | - | 55.5 0.6 | - | - | 79 2 | 49.2 0.1 | 5.5 1.8 | 8.8 0.6 | 0 0 | 50.7 2.3 | 75.8 3.6 | 0.00 | 0.183 0.016 |
| East Paso Robles (SLO-29) | 9/1/26 | 2115 | - | 56.9 0.1 | - | - | 76 1 | 49.5 0.3 | 5.3 1.6 | 8.2 2.2 | 0 0 | 50.4 2.0 | 74.7 3.3 | 0.00 | 0.183 0.022 |
| Max | - | 62.0 | 60.3 | 3.0 | 94 | 55.1 | 5.5 | 11.6 | 0 | 54.3 | 82.4 | 0.01 | 0.192 | ||
| Avg | - | 55.7 | 56.5 | 1.1 | 79 | 49.3 | 1.3 | 3.2 | 0 | - | - | - | - | ||
| Min | - | 49.7 | 50.9 | -0.1 | 54 | 44.6 | 0.0 | 0.0 | 0 | 40.6 | 68.0 | 0.00 | 0.148 |
| Station | Date | Daily Max Temp 5ft (°F) | Time of Max Temp | Daily Min Temp 5ft (°F) | Time of Min Temp | Daily Rain (In) | Month Precip (In) | Season Precip (In) | Wind Spd (mph) | Daily Max Wind (mph) | Time of Max Wind | Dew Pt (°F) | Daily Max RH (%) | Daily Min RH (%) | Daily Max Temp 30ft (°F) | Daily Min Temp 30ft (°F) | Max Inversion (°F) | Max Inversion Time | Min Inversion (°F) | Min Inversion Time | Daily Solar Rad (Cal/cm2) | MinBV Day (V) |
|---|---|---|---|---|---|---|---|---|---|---|---|---|---|---|---|---|---|---|---|---|---|---|
| Shandon ETo (SLO-1) | 8/31/26 | 81.7 | 1441 | 43.8 | 0443 | 0.00 | 0.00 | 0.05 | 5.1 | 19.5 | 1514 | 48.9 | 97 | 28 | 81.9 | 45.4 | 3.6 | 0440 | -4.7 | 1125 | 504 | 12.4 |
| Creston Rd (SLO-2) | 8/31/26 | 80.7 | 1406 | 43.1 | 0420 | 0.00 | 0.00 | 0.02 | 3.1 | 17.8 | 1513 | 48.8 | 94 | 37 | 80.5 | 45.0 | 7.2 | 0246 | -6.6 | 1240 | 546 | 12.3 |
| NE Paso Robles (SLO-3) | 8/31/26 | 82.6 | 1359 | 46.3 | 0412 | 0.00 | 0.00 | 0.01 | 3.0 | 18.8 | 1614 | 51.0 | 97 | 36 | 81.4 | 48.0 | 5.0 | 0142 | -6.4 | 1434 | 497 | 12.3 |
| Cross Canyon Rd (SLO-4) | 8/31/26 | 83.1 | 1444 | 47.4 | 0323 | 0.00 | 0.00 | 0.00 | 3.6 | 15.2 | 1510 | 50.8 | 99 | 29 | 83.2 | 49.6 | 5.4 | 0133 | -5.4 | 1543 | 495 | 12.4 |
| Willow Creek (SLO-5) | 8/31/26 | 73.1 | 1319 | 43.3 | 0210 | 0.00 | 0.00 | 0.00 | 2.1 | 14.8 | 1553 | 48.0 | 96 | 40 | 73.6 | 44.9 | 5.8 | 0119 | -4.9 | 1451 | 554 | 12.4 |
| Shell Creek Rd (SLO-6) | 8/31/26 | 88.6 | 1434 | 37.0 | 0628 | 0.00 | 0.00 | 0.00 | 4.3 | 17.5 | 1949 | 43.4 | 92 | 14 | 88.6 | 38.7 | 5.4 | 0128 | -5.4 | 1222 | 548 | 12.3 |
| South Shandon (SLO-7) | 8/31/26 | 86.0 | 1457 | 41.0 | 0553 | 0.00 | 0.00 | 0.02 | 4.7 | 17.8 | 1506 | 47.6 | 93 | 25 | 85.6 | 44.9 | 6.7 | 0104 | -6.0 | 1241 | 510 | 12.3 |
| South Creston (SLO-8) | 8/31/26 | 81.3 | 1506 | 38.6 | 0606 | 0.00 | 0.00 | 0.00 | 3.7 | 16.8 | 1254 | 46.6 | 94 | 31 | 81.7 | 40.3 | 6.1 | 0106 | -5.4 | 1311 | 544 | 12.3 |
| Pozo Rd (SLO-9) | 8/31/26 | 79.8 | 1331 | 31.3 | 0634 | 0.00 | 0.00 | 0.02 | 2.4 | 15.5 | 1314 | 42.4 | 93 | 31 | 78.7 | 33.9 | 5.9 | 0322 | -6.1 | 1311 | 553 | 12.3 |
| Experimental Station (SLO-10) | 8/31/26 | 79.6 | 1352 | 48.4 | 0314 | 0.00 | 0.00 | 0.00 | 2.5 | 17.5 | 1528 | 50.1 | 95 | 36 | 79.3 | 49.0 | 1.9 | 0333 | -5.2 | 1402 | 476 | 12.3 |
| Vineyard Drive (SLO-11) | 8/31/26 | 74.1 | 1303 | 40.5 | 0209 | 0.00 | 0.00 | 0.00 | 1.8 | 14.2 | 1448 | 48.1 | 95 | 43 | 73.5 | 43.2 | 6.6 | 0227 | -6.2 | 1341 | 542 | 12.4 |
| Von Dollen Road (SLO-12) | 8/31/26 | 80.2 | 1444 | 50.2 | 0213 | 0.00 | 0.00 | 0.01 | 3.3 | 14.8 | 1542 | 49.5 | 90 | 39 | 80.4 | 50.2 | 2.6 | 0101 | -6.2 | 1453 | 520 | 12.4 |
| Templeton Gap West (SLO-13) | 8/31/26 | 76.3 | 1329 | 46.1 | 0039 | 0.00 | 0.00 | 0.00 | 2.6 | 14.8 | 1355 | 50.6 | 100 | 42 | 75.2 | 48.3 | 6.6 | 0019 | -7.1 | 1122 | 526 | 12.4 |
| Orcutt Road (SLO-14) | 8/31/26 | 74.9 | 1425 | 50.1 | 0101 | 0.00 | 0.00 | 0.01 | 2.4 | 14.8 | 1537 | 52.9 | 95 | 49 | 73.8 | 52.4 | 3.4 | 0045 | -5.5 | 1514 | 498 | 12.3 |
| Tiffany Ranch Rd (SLO-15) | 8/31/26 | 76.4 | 1532 | 48.7 | 0059 | 0.00 | 0.00 | 0.00 | 0.0 | 0.0 | 0101 | 53.3 | 96 | 49 | 74.2 | 50.1 | 5.3 | 2308 | -5.8 | 1236 | 502 | 12.4 |
| Chimney Rock Rd (SLO-16) | 8/31/26 | 76.4 | 1320 | 41.3 | 0517 | 0.00 | 0.02 | 0.02 | 2.1 | 15.2 | 1631 | 45.7 | 98 | 29 | 76.2 | 42.6 | 4.3 | 0204 | -5.2 | 1329 | 558 | 12.0 |
| Nipomo Mesa (SLO-17) | 8/31/26 | 74.9 | 1228 | 46.6 | 2314 | 0.00 | 0.00 | 0.02 | 1.8 | 10.1 | 1346 | 52.5 | 93 | 50 | 71.6 | 50.6 | 6.6 | 2330 | -9.1 | 1122 | 488 | 12.4 |
| Morro Creek (SLO-18) | 8/31/26 | 66.7 | 1449 | 54.6 | 2020 | 0.00 | 0.00 | 0.01 | 1.9 | 13.8 | 1605 | 54.4 | 94 | 68 | 65.5 | 55.7 | 2.7 | 2017 | -5.0 | 1424 | 469 | 12.4 |
| Paso Robles Airport ETo | 8/31/26 | 78.4 | 1449 | 48.0 | 0232 | 0.00 | 0.02 | 0.03 | 4.0 | 17.8 | 1617 | 51.3 | 96 | 38 | 78.8 | 49.6 | 4.2 | 0159 | -2.4 | 1151 | 490 | 12.4 |
| West Shandon (SLO-20) | 8/31/26 | 84.5 | 1441 | 45.3 | 0524 | 0.00 | 0.00 | 0.06 | 4.5 | 19.8 | 1501 | 49.4 | 91 | 28 | 84.8 | 46.2 | 4.1 | 0158 | -5.9 | 1235 | 495 | 12.2 |
| West San Miguel (SLO-21) | 8/31/26 | 84.0 | 1443 | 46.7 | 0200 | 0.00 | 0.00 | 0.00 | 2.8 | 15.5 | 1453 | 48.2 | 97 | 16 | - | - | - | 0101 | - | 0101 | 488 | 12.3 |
| Adelaida Road (SLO-22) | 8/31/26 | 76.0 | 1326 | 41.9 | 0351 | 0.00 | 0.00 | 0.00 | 2.7 | 15.5 | 1746 | 45.0 | 98 | 23 | 76.4 | 44.7 | 7.6 | 0152 | -3.1 | 1047 | 544 | 12.4 |
| East Whitley Gardens (SLO-23) | 8/31/26 | 81.4 | 1418 | 44.3 | 0452 | 0.00 | 0.00 | 0.01 | 3.6 | 16.6 | 1606 | 47.8 | 98 | 29 | 80.3 | 46.8 | 5.6 | 0147 | -3.5 | 1440 | 514 | 12.4 |
| Estrella Road (SLO-24) | 8/31/26 | 81.0 | 1425 | 48.0 | 0237 | 0.00 | 0.00 | 0.01 | 3.7 | 17.2 | 1401 | 49.4 | 97 | 31 | - | - | - | 0101 | - | 0101 | 502 | 12.5 |
| Camatta Creek (SLO-25) | 8/31/26 | 83.7 | 1454 | 41.7 | 0616 | 0.00 | 0.00 | 0.02 | 2.9 | 18.3 | 1447 | 45.7 | 97 | 14 | - | - | - | - | - | - | 502 | 12.3 |
| East-Shandon (SLO-26) | 8/31/26 | 84.3 | 1504 | 41.3 | 0549 | 0.00 | 0.00 | 0.02 | 3.9 | 18.8 | 1626 | 45.9 | 95 | 20 | - | - | - | - | - | - | 532 | 12.4 |
| Templeton East (SLO-27) | 8/31/26 | 78.1 | 1256 | 44.6 | 0404 | 0.00 | 0.00 | 0.00 | 2.2 | 17.7 | 1609 | 48.6 | 96 | 36 | - | - | - | 0101 | - | 0101 | 562 | 12.4 |
| Ground Squirrel Hollow (SLO-28) | 8/31/26 | 79.4 | 1428 | 48.4 | 0412 | 0.00 | 0.00 | 0.00 | 3.8 | 16.0 | 1452 | 48.8 | 98 | 32 | - | - | - | 0101 | - | 0101 | 533 | 12.4 |
| East Paso Robles (SLO-29) | 8/31/26 | 78.0 | 1351 | 48.4 | 0403 | 0.00 | 0.00 | 0.01 | 4.7 | 20.0 | 1537 | 49.6 | 97 | 36 | - | - | - | 0101 | - | 0101 | 499 | 12.4 |
| Max | 88.6 | - | 54.6 | - | 0.00 | 0.02 | 0.06 | 5.1 | 20.0 | - | 54.4 | 100 | 68 | 88.6 | 55.7 | 7.6 | - | -2.4 | - | 562 | 12.5 | |
| Avg | - | - | - | - | - | - | - | 3.1 | - | - | 48.8 | - | - | - | - | - | - | - | - | - | - | |
| Min | 66.7 | - | 31.3 | - | 0.00 | 0.00 | 0.00 | 0.0 | 0.0 | - | 42.4 | 90 | 14 | 65.5 | 33.9 | 1.9 | - | -9.1 | - | 469 | 12.0 |
| Station | Date | Daily ETo (in) | 7 Day ETo (in) | Hrs 70-85F (hrs) | Hrs > 95F (hrs) | Powdery Mildew Stress (pts) | GDDs (DL) | GDDs (Mx/Mn) | Seas GDDs (DL) | Seas GDDs (Smpl) | Hrs <= 32F (hrs) | Hrs <= 28F (hrs) | Chilling <=45F (hrs) | Chill Hrs 32-45F (hrs) | Utah Chilling (Units) |
|---|---|---|---|---|---|---|---|---|---|---|---|---|---|---|---|
| Shandon ETo (SLO-1) | 8/31/26 | 0.172 | 1.31 | 5.63 | 0.00 | 0 | 10.0 | 12.8 | 2,620 | 2,671 | 0.0 | 0.0 | 1.0 | 1.0 | 1.0 |
| Creston Rd (SLO-2) | 8/31/26 | 0.172 | 1.29 | 5.14 | 0.00 | 20 | 9.5 | 11.9 | 2,489 | 2,583 | 0.0 | 0.0 | 2.4 | 2.4 | 1.5 |
| NE Paso Robles (SLO-3) | 8/31/26 | 0.165 | 1.27 | 5.76 | 0.00 | 0 | 10.4 | 14.4 | 2,659 | 2,870 | 0.0 | 0.0 | 0.0 | 0.0 | 0.5 |
| Cross Canyon Rd (SLO-4) | 8/31/26 | 0.167 | 1.27 | 6.38 | 0.00 | 0 | 11.1 | 15.2 | 2,692 | 2,880 | 0.0 | 0.0 | 0.0 | 0.0 | 0.5 |
| Willow Creek (SLO-5) | 8/31/26 | 0.161 | 1.14 | 2.42 | 0.00 | 80 | 7.8 | 8.2 | 2,153 | 2,084 | 0.0 | 0.0 | 2.0 | 2.0 | 3.5 |
| Shell Creek Rd (SLO-6) | 8/31/26 | 0.195 | 1.42 | 3.09 | 0.00 | 0 | 12.3 | 12.8 | 2,927 | 2,688 | 0.0 | 0.0 | 5.4 | 5.4 | 1.0 |
| South Shandon (SLO-7) | 8/31/26 | 0.177 | 1.29 | 6.14 | 0.00 | 0 | 10.8 | 13.5 | 2,757 | 2,727 | 0.0 | 0.0 | 2.3 | 2.3 | 1.5 |
| South Creston (SLO-8) | 8/31/26 | 0.184 | 1.26 | 6.50 | 0.00 | 0 | 11.0 | 9.9 | 2,621 | 2,579 | 0.0 | 0.0 | 5.8 | 5.8 | 1.0 |
| Pozo Rd (SLO-9) | 8/31/26 | 0.173 | 0.97 | 6.29 | 0.00 | 0 | 9.6 | 5.5 | 2,048 | 1,851 | 0.5 | 0.0 | 8.2 | 7.7 | 4.0 |
| Experimental Station (SLO-10) | 8/31/26 | 0.150 | 1.26 | 5.27 | 0.00 | 0 | 10.0 | 14.0 | 2,525 | 2,792 | 0.0 | 0.0 | 0.0 | 0.0 | 0.5 |
| Vineyard Drive (SLO-11) | 8/31/26 | 0.160 | 1.12 | 3.45 | 0.00 | 50 | 8.4 | 7.3 | 2,239 | 2,044 | 0.0 | 0.0 | 2.3 | 2.3 | 3.0 |
| Von Dollen Road (SLO-12) | 8/31/26 | 0.163 | 1.23 | 5.77 | 0.00 | 0 | 10.3 | 15.2 | 2,564 | 2,744 | 0.0 | 0.0 | 0.0 | 0.0 | 0.5 |
| Templeton Gap West (SLO-13) | 8/31/26 | 0.160 | 1.11 | 5.61 | 0.00 | 0 | 9.1 | 11.2 | 2,197 | 2,168 | 0.0 | 0.0 | 0.0 | 0.0 | 2.0 |
| Orcutt Road (SLO-14) | 8/31/26 | 0.148 | 1.06 | 3.36 | 0.00 | 70 | 11.0 | 12.5 | 1,799 | 1,969 | 0.0 | 0.0 | 0.0 | 0.0 | 0.5 |
| Tiffany Ranch Rd (SLO-15) | 8/31/26 | 0.142 | 0.94 | 5.85 | 0.00 | 100 | 11.3 | 12.5 | 1,819 | 1,875 | 0.0 | 0.0 | 0.0 | 0.0 | 1.5 |
| Chimney Rock Rd (SLO-16) | 8/31/26 | 0.172 | 1.14 | 6.47 | 0.00 | 20 | 9.2 | 8.8 | 2,437 | 2,432 | 0.0 | 0.0 | 3.5 | 3.5 | 1.5 |
| Nipomo Mesa (SLO-17) | 8/31/26 | 0.141 | 1.04 | 1.84 | 0.00 | 100 | 10.2 | 10.7 | 1,833 | 1,882 | 0.0 | 0.0 | 0.0 | 0.0 | 2.5 |
| Morro Creek (SLO-18) | 8/31/26 | 0.121 | 0.81 | 0.00 | 0.00 | 0 | 9.4 | 10.7 | 1,284 | 1,275 | 0.0 | 0.0 | 0.0 | 0.0 | 0.0 |
| Paso Robles Airport ETo | 8/31/26 | 0.156 | 1.23 | 4.93 | 0.00 | 20 | 9.7 | 13.2 | 2,442 | 2,587 | 0.0 | 0.0 | 0.0 | 0.0 | -2.5 |
| West Shandon (SLO-20) | 8/31/26 | 0.177 | 1.32 | 6.60 | 0.00 | 0 | 11.3 | 14.9 | 2,855 | 2,895 | 0.0 | 0.0 | 0.0 | 0.0 | -3.0 |
| West San Miguel (SLO-21) | 8/31/26 | 0.162 | 1.29 | 6.29 | 0.00 | 40 | 11.1 | - | 2,603 | - | 0.0 | 0.0 | 0.0 | - | - |
| Adelaida Road (SLO-22) | 8/31/26 | 0.163 | 1.19 | 5.26 | 0.00 | 10 | 9.0 | - | 2,464 | - | 0.0 | 0.0 | 3.9 | - | - |
| East Whitley Gardens (SLO-23) | 8/31/26 | 0.168 | 1.29 | 5.72 | 0.00 | 0 | 9.8 | - | 2,570 | - | 0.0 | 0.0 | 0.5 | - | - |
| Estrella Road (SLO-24) | 8/31/26 | 0.166 | 1.22 | 5.66 | 0.00 | 0 | 10.6 | - | 2,565 | - | 0.0 | 0.0 | 0.0 | - | - |
| Camatta Creek (SLO-25) | 8/31/26 | 0.169 | 1.18 | 6.04 | 0.00 | 70 | 10.6 | - | 2,712 | - | 0.0 | 0.0 | 2.8 | - | - |
| East-Shandon (SLO-26) | 8/31/26 | 0.180 | 1.28 | 6.17 | 0.00 | 20 | 10.5 | - | 2,633 | - | 0.0 | 0.0 | 3.6 | - | - |
| Templeton East (SLO-27) | 8/31/26 | 0.167 | 1.14 | 5.52 | 0.00 | 40 | 10.0 | - | 2,430 | - | 0.0 | 0.0 | 0.5 | - | - |
| Ground Squirrel Hollow (SLO-28) | 8/31/26 | 0.167 | 1.94 | 5.14 | 0.00 | 0 | 9.4 | - | 2,519 | - | 0.0 | 0.0 | 0.0 | - | - |
| East Paso Robles (SLO-29) | 8/31/26 | 0.161 | 1.30 | 4.77 | 0.00 | 0 | 9.3 | - | 2,470 | - | 0.0 | 0.0 | 0.0 | - | - |
| Max | 0.195 | 1.94 | 6.60 | 0.00 | - | 12.3 | 15.2 | - | - | 0.5 | 0.0 | 8.2 | 7.7 | 4.0 | |
| Avg | - | - | 5.07 | 0.00 | - | 10.1 | 11.8 | - | - | 0.0 | 0.0 | 1.5 | 1.6 | 1.0 | |
| Min | 0.121 | 0.81 | 0.00 | 0.00 | - | 7.8 | 5.5 | - | - | 0.0 | 0.0 | 0.0 | 0.0 | -3.0 |